Terminal Aerodrome Forecast
Issued by NWS

Home | Current Version | Previous Version | Text Only | Print | Product List | Glossary On
Versions: 1 2 3 4 5 6 7 8 9 10 11 12 13 14 15 16 17 18 19 20 21
000
FTUS43 KPAH 250001 AAA
TAFCGI
TAF AMD
KCGI 250001Z 2500/2524 21010G18KT 2SM +SHRA VCTS OVC005CB
      TEMPO 2500/2501 VRB15G30KT 3/4SM +TSRA BR
     FM250100 23013G23KT 4SM -SHRA BR VCTS OVC010CB
     FM250400 27017G27KT P6SM BKN030
     FM250600 30015G25KT P6SM SCT035
     FM250900 29007KT P6SM SCT250
     FM251400 27006KT P6SM SKC
     FM252300 VRB03KT P6SM SKC=

USA.gov is the U.S. government's official web portal to all federal, state and local government web resources and services.